Time;durP1;ratioP1;P1;durP2;ratioP2;P2;SDS_P1;SDS_P2;PMS_P1;PMS_P2;Temp;Humidity;BMP_temperature;BMP_pressure;BME280_temperature;BME280_humidity;BME280_pressure;Samples;Min_cycle;Max_cycle;Signal;HPM_P1;HPM_P2
2021/01/19 00:01:01;;;;;;;14.32;7.07;;;3.80;99.90;;;;;;5084131;28;20047;-76
2021/01/19 00:03:27;;;;;;;12.93;6.35;;;3.80;99.90;;;;;;5079834;28;20024;-75
2021/01/19 00:05:54;;;;;;;14.93;6.65;;;3.80;99.90;;;;;;5075699;28;20056;-75
2021/01/19 00:08:24;;;;;;;12.82;6.45;;;3.80;99.90;;;;;;5086837;28;20029;-75
2021/01/19 00:10:49;;;;;;;12.95;6.03;;;3.80;99.90;;;;;;5091758;28;20024;-75
2021/01/19 00:13:20;;;;;;;11.18;5.68;;;3.80;99.90;;;;;;5077178;28;20465;-75
2021/01/19 00:15:49;;;;;;;16.55;6.60;;;3.90;99.90;;;;;;5078876;28;20043;-75
2021/01/19 00:18:15;;;;;;;13.77;5.82;;;3.90;99.90;;;;;;5075540;28;20086;-75
2021/01/19 00:20:44;;;;;;;11.38;5.72;;;3.90;99.90;;;;;;5077640;28;20067;-75
2021/01/19 00:23:15;;;;;;;12.55;5.72;;;3.80;99.90;;;;;;5075958;28;20032;-75
2021/01/19 00:25:43;;;;;;;10.48;5.43;;;3.90;99.90;;;;;;5078109;28;20037;-76
2021/01/19 00:28:09;;;;;;;11.85;5.30;;;3.90;99.90;;;;;;5076643;28;20101;-75
2021/01/19 00:30:41;;;;;;;9.77;5.63;;;3.80;99.90;;;;;;5070432;28;20469;-75
2021/01/19 00:33:10;;;;;;;11.85;5.50;;;3.80;99.90;;;;;;5077280;28;20020;-75
2021/01/19 00:35:36;;;;;;;14.68;5.45;;;3.80;99.90;;;;;;5077693;28;20471;-75
2021/01/19 00:38:02;;;;;;;10.27;4.85;;;3.80;99.90;;;;;;5052956;28;20052;-75
2021/01/19 00:40:30;;;;;;;9.85;5.20;;;3.80;99.90;;;;;;5077096;28;20028;-75
2021/01/19 00:42:59;;;;;;;11.55;5.50;;;3.80;99.90;;;;;;5084192;28;20104;-75
2021/01/19 00:45:27;;;;;;;11.27;5.55;;;3.90;99.90;;;;;;5092074;28;20024;-75
2021/01/19 00:47:55;;;;;;;12.30;5.43;;;3.80;99.90;;;;;;5079716;28;20032;-75
2021/01/19 00:50:25;;;;;;;12.10;5.18;;;3.90;99.90;;;;;;5076258;28;20457;-75
2021/01/19 00:52:55;;;;;;;10.35;5.43;;;3.90;99.90;;;;;;5076973;28;20028;-75
2021/01/19 00:55:23;;;;;;;11.98;5.95;;;3.90;99.90;;;;;;5074482;28;20089;-75
2021/01/19 00:57:51;;;;;;;10.23;5.00;;;3.90;99.90;;;;;;5076728;28;20029;-75
2021/01/19 01:00:17;;;;;;;13.02;5.30;;;3.90;99.90;;;;;;5085594;28;20051;-75
2021/01/19 01:02:46;;;;;;;13.13;5.68;;;3.80;99.90;;;;;;5074609;28;20042;-75
2021/01/19 01:05:14;;;;;;;13.88;5.40;;;3.80;99.90;;;;;;5078611;28;20047;-75
2021/01/19 01:07:43;;;;;;;13.38;5.25;;;3.80;99.90;;;;;;5074434;28;20062;-74
2021/01/19 01:10:13;;;;;;;12.80;4.93;;;3.90;99.90;;;;;;5075502;28;20108;-75
2021/01/19 01:12:42;;;;;;;11.63;5.10;;;3.90;99.90;;;;;;5075750;28;20037;-75
2021/01/19 01:15:11;;;;;;;12.95;4.90;;;3.90;99.90;;;;;;5052101;28;20027;-75
2021/01/19 01:17:37;;;;;;;11.65;4.88;;;3.80;99.90;;;;;;5075875;28;20028;-75
2021/01/19 01:20:10;;;;;;;13.65;5.53;;;3.80;99.90;;;;;;5075610;28;20063;-75
2021/01/19 01:22:44;;;;;;;11.02;5.10;;;3.80;99.90;;;;;;5083483;28;20059;-75
2021/01/19 01:25:14;;;;;;;12.05;4.85;;;3.70;99.90;;;;;;5073270;28;20032;-75
2021/01/19 01:27:40;;;;;;;11.45;4.70;;;3.70;99.90;;;;;;5065922;28;20118;-75
2021/01/19 01:30:08;;;;;;;11.68;4.70;;;3.70;99.90;;;;;;5088476;28;20040;-75
2021/01/19 01:32:48;;;;;;;11.85;4.72;;;3.60;99.90;;;;;;5086032;28;20039;-75
2021/01/19 01:35:17;;;;;;;9.90;4.60;;;3.70;99.90;;;;;;5073988;28;20059;-75
2021/01/19 01:37:46;;;;;;;10.10;4.85;;;3.60;99.90;;;;;;5074567;28;20601;-75
2021/01/19 01:40:17;;;;;;;11.38;4.70;;;3.60;99.90;;;;;;5076051;28;20034;-75
2021/01/19 01:42:45;;;;;;;12.77;5.00;;;3.60;99.90;;;;;;5065848;28;20020;-75
2021/01/19 01:45:15;;;;;;;10.32;4.65;;;3.50;99.90;;;;;;5085694;28;20024;-75
2021/01/19 01:47:44;;;;;;;11.18;4.90;;;3.50;99.90;;;;;;5085549;28;20112;-75
2021/01/19 01:50:12;;;;;;;10.57;4.72;;;3.50;99.90;;;;;;5084843;28;20120;-75
2021/01/19 01:52:40;;;;;;;8.52;4.18;;;3.50;99.90;;;;;;5091343;28;20020;-75
2021/01/19 01:55:09;;;;;;;9.55;4.18;;;3.50;99.90;;;;;;5090653;28;20103;-75
2021/01/19 01:57:39;;;;;;;12.02;5.00;;;3.50;99.90;;;;;;5089446;28;20323;-75
2021/01/19 02:00:06;;;;;;;11.75;5.55;;;3.50;99.90;;;;;;5071585;28;20029;-75
2021/01/19 02:02:45;;;;;;;9.82;5.38;;;3.50;99.90;;;;;;5089258;28;20059;-75
2021/01/19 02:05:14;;;;;;;9.65;4.40;;;3.50;99.90;;;;;;5076618;28;20626;-75
2021/01/19 02:07:55;;;;;;;10.18;4.88;;;3.50;99.90;;;;;;5075641;28;20060;-75
2021/01/19 02:10:28;;;;;;;10.23;4.60;;;3.50;99.90;;;;;;5074471;28;20057;-75
2021/01/19 02:13:10;;;;;;;8.40;4.55;;;3.50;99.90;;;;;;5073890;28;20027;-75
2021/01/19 02:15:40;;;;;;;9.50;4.50;;;3.50;99.90;;;;;;5077724;28;20024;-76
2021/01/19 02:18:27;;;;;;;11.82;4.38;;;3.40;99.90;;;;;;5075324;28;20028;-75
2021/01/19 02:21:08;;;;;;;9.68;4.68;;;3.50;99.90;;;;;;5071012;28;20024;-75
2021/01/19 02:23:50;;;;;;;10.88;4.40;;;3.50;99.90;;;;;;5074207;28;20038;-75
2021/01/19 02:26:22;;;;;;;;;;;3.50;99.90;;;;;;5065781;28;20123;-75
2021/01/19 02:28:53;;;;;;;9.75;4.80;;;3.40;99.90;;;;;;5074739;28;19978;-75
2021/01/19 02:31:39;;;;;;;9.20;4.88;;;3.40;99.90;;;;;;5072557;28;20043;-75
2021/01/19 02:34:37;;;;;;;8.88;4.28;;;3.40;99.90;;;;;;5077364;28;20033;-75
2021/01/19 02:37:09;;;;;;;13.55;5.50;;;3.40;99.90;;;;;;5028151;28;20111;-75
2021/01/19 02:40:06;;;;;;;10.25;4.80;;;3.50;99.90;;;;;;5073155;28;20036;-75
2021/01/19 02:43:20;;;;;;;11.50;5.38;;;3.50;99.90;;;;;;5079482;28;20036;-75
2021/01/19 02:45:48;;;;;;;10.63;4.63;;;3.40;99.90;;;;;;5043127;28;20075;-75
2021/01/19 02:48:16;;;;;;;9.18;5.03;;;3.40;99.90;;;;;;5074275;28;20624;-75
2021/01/19 02:50:45;;;;;;;11.18;5.30;;;3.40;99.90;;;;;;5074181;28;20036;-75
2021/01/19 02:53:13;;;;;;;11.10;4.88;;;3.40;99.90;;;;;;5073521;28;20521;-75
2021/01/19 02:55:40;;;;;;;9.27;4.68;;;3.50;99.90;;;;;;5072868;28;20608;-76
2021/01/19 02:58:16;;;;;;;11.40;5.70;;;3.50;99.90;;;;;;5088119;28;20024;-75
2021/01/19 03:00:57;;;;;;;11.95;5.15;;;3.50;99.90;;;;;;5086117;28;20024;-75
2021/01/19 03:03:23;;;;;;;12.40;5.20;;;3.50;99.90;;;;;;5068315;28;20036;-76
2021/01/19 03:05:51;;;;;;;11.43;5.32;;;3.40;99.90;;;;;;5086301;28;20028;-75
2021/01/19 03:08:17;;;;;;;9.50;4.93;;;3.40;99.90;;;;;;5077239;28;20024;-75
2021/01/19 03:10:43;;;;;;;10.25;4.80;;;3.40;99.90;;;;;;5085564;28;20024;-75
2021/01/19 03:13:12;;;;;;;9.15;4.70;;;3.30;99.90;;;;;;5083471;28;20088;-75
2021/01/19 03:15:39;;;;;;;10.85;4.97;;;3.40;99.90;;;;;;5069572;28;20102;-75
2021/01/19 03:18:07;;;;;;;14.35;5.60;;;3.40;99.90;;;;;;5069051;28;20024;-75
2021/01/19 03:20:35;;;;;;;10.95;5.35;;;3.40;99.90;;;;;;5072171;28;20048;-75
2021/01/19 03:23:01;;;;;;;10.55;5.05;;;3.40;99.90;;;;;;5058091;28;20033;-75
2021/01/19 03:25:30;;;;;;;9.98;4.88;;;3.40;99.90;;;;;;5073049;28;20042;-76
2021/01/19 03:27:57;;;;;;;11.30;4.82;;;3.40;99.90;;;;;;5061084;28;20112;-75
2021/01/19 03:30:23;;;;;;;12.65;5.30;;;3.40;99.90;;;;;;5071757;28;20096;-75
2021/01/19 03:32:49;;;;;;;11.02;4.50;;;3.40;99.90;;;;;;5074944;28;20490;-75
2021/01/19 03:35:14;;;;;;;10.65;4.72;;;3.30;99.90;;;;;;5076944;28;20029;-75
2021/01/19 03:37:40;;;;;;;12.15;4.78;;;3.30;99.90;;;;;;5075771;28;20032;-75
2021/01/19 03:40:11;;;;;;;10.57;4.70;;;3.30;99.90;;;;;;5084012;28;20115;-75
2021/01/19 03:42:39;;;;;;;12.27;4.95;;;3.30;99.90;;;;;;5087048;28;20453;-76
2021/01/19 03:45:05;;;;;;;8.23;4.43;;;3.30;99.90;;;;;;5090289;28;20040;-75
2021/01/19 03:47:33;;;;;;;8.88;4.25;;;3.30;99.90;;;;;;5091075;28;20101;-75
2021/01/19 03:50:02;;;;;;;9.40;4.45;;;3.20;99.90;;;;;;5093359;28;20031;-75
2021/01/19 03:52:27;;;;;;;9.55;4.43;;;3.20;99.90;;;;;;5096187;28;20024;-75
2021/01/19 03:54:53;;;;;;;8.13;4.30;;;3.20;99.90;;;;;;5084315;28;20042;-75
2021/01/19 03:57:21;;;;;;;8.98;4.05;;;3.20;99.90;;;;;;5077245;28;20374;-75
2021/01/19 03:59:51;;;;;;;10.10;4.32;;;3.20;99.90;;;;;;5075201;28;20048;-76
2021/01/19 04:02:17;;;;;;;8.25;3.97;;;3.10;99.90;;;;;;5077843;28;20042;-75
2021/01/19 04:04:42;;;;;;;8.73;3.70;;;3.10;99.90;;;;;;5077885;28;20024;-75
2021/01/19 04:07:08;;;;;;;7.85;3.70;;;3.10;99.90;;;;;;5071099;28;20466;-75
2021/01/19 04:09:34;;;;;;;8.65;3.92;;;3.10;99.90;;;;;;5076645;28;20024;-76
2021/01/19 04:12:01;;;;;;;8.68;3.80;;;3.10;99.90;;;;;;5087903;28;20032;-75
2021/01/19 04:14:29;;;;;;;9.48;3.63;;;3.10;99.90;;;;;;5089866;28;20114;-75
2021/01/19 04:16:55;;;;;;;7.97;3.70;;;3.10;99.90;;;;;;5075986;28;20039;-75
2021/01/19 04:19:20;;;;;;;8.65;3.88;;;3.10;99.90;;;;;;5075994;28;21753;-76
2021/01/19 04:21:49;;;;;;;9.27;3.78;;;3.10;99.90;;;;;;5080610;28;20028;-75
2021/01/19 04:24:16;;;;;;;7.45;3.90;;;3.10;99.90;;;;;;5076487;28;20053;-75
2021/01/19 04:26:44;;;;;;;12.00;3.63;;;3.10;99.90;;;;;;5076143;28;20074;-76
2021/01/19 04:29:11;;;;;;;7.47;3.63;;;3.10;99.90;;;;;;5075816;28;20032;-76
2021/01/19 04:31:37;;;;;;;7.38;3.45;;;3.10;99.90;;;;;;5076223;28;20895;-75
2021/01/19 04:34:10;;;;;;;6.45;3.60;;;3.10;99.90;;;;;;5077371;28;20034;-76
2021/01/19 04:36:38;;;;;;;6.72;3.28;;;3.00;99.90;;;;;;5076449;28;21894;-75
2021/01/19 04:39:07;;;;;;;7.32;3.42;;;3.00;99.90;;;;;;5086401;28;20040;-75
2021/01/19 04:41:35;;;;;;;11.80;4.25;;;3.00;99.90;;;;;;5088877;28;20103;-75
2021/01/19 04:44:00;;;;;;;9.55;3.72;;;3.00;99.90;;;;;;5094224;28;20111;-75
2021/01/19 04:46:26;;;;;;;7.90;3.47;;;3.00;99.90;;;;;;5090308;28;20103;-76
2021/01/19 04:48:53;;;;;;;7.85;3.65;;;3.00;99.90;;;;;;5087866;28;20492;-75
2021/01/19 04:51:21;;;;;;;7.47;4.05;;;3.00;99.90;;;;;;5087332;28;20060;-76
2021/01/19 04:54:06;;;;;;;12.43;4.00;;;3.00;99.90;;;;;;5088613;28;20026;-75
2021/01/19 04:56:35;;;;;;;11.57;4.10;;;3.10;99.90;;;;;;5086563;28;20093;-75
2021/01/19 04:59:01;;;;;;;9.60;3.80;;;3.10;99.90;;;;;;5069212;28;20592;-75
2021/01/19 05:01:33;;;;;;;10.00;3.90;;;3.10;99.90;;;;;;5064340;28;20028;-75
2021/01/19 05:04:07;;;;;;;6.82;2.95;;;3.10;99.90;;;;;;5075727;28;20643;-75
2021/01/19 05:06:42;;;;;;;7.03;3.55;;;3.10;99.90;;;;;;5050578;28;20047;-76
2021/01/19 05:09:11;;;;;;;11.18;4.00;;;3.10;99.90;;;;;;5076186;28;20030;-75
2021/01/19 05:11:49;;;;;;;9.13;4.45;;;3.10;99.90;;;;;;5077387;28;20031;-75
2021/01/19 05:14:19;;;;;;;8.52;4.30;;;3.20;99.90;;;;;;5074868;28;20017;-75
2021/01/19 05:16:45;;;;;;;10.77;4.20;;;3.10;99.90;;;;;;5074124;28;20016;-75
2021/01/19 05:19:11;;;;;;;9.05;4.05;;;3.10;99.90;;;;;;5082447;28;20043;-75
2021/01/19 05:21:40;;;;;;;7.95;3.80;;;3.00;99.90;;;;;;5057886;28;20042;-75
2021/01/19 05:24:06;;;;;;;10.52;4.20;;;3.00;99.90;;;;;;5076447;28;20094;-75
2021/01/19 05:26:35;;;;;;;9.13;4.07;;;3.00;99.90;;;;;;5074259;28;20031;-75
2021/01/19 05:29:05;;;;;;;7.95;4.00;;;3.00;99.90;;;;;;5066317;28;20085;-75
2021/01/19 05:31:31;;;;;;;8.75;4.55;;;3.00;99.90;;;;;;5074146;28;20880;-75
2021/01/19 05:33:58;;;;;;;10.07;4.65;;;3.00;99.90;;;;;;5074188;28;20032;-75
2021/01/19 05:36:39;;;;;;;9.73;4.28;;;2.90;99.90;;;;;;5069506;28;20029;-75
2021/01/19 05:39:11;;;;;;;8.25;4.68;;;2.90;99.90;;;;;;5074847;28;20031;-75
2021/01/19 05:41:44;;;;;;;9.32;4.53;;;2.90;99.90;;;;;;5088375;28;20020;-75
2021/01/19 05:44:18;;;;;;;9.25;4.43;;;2.90;99.90;;;;;;5088183;28;20039;-75
2021/01/19 05:46:50;;;;;;;9.30;4.57;;;2.90;99.90;;;;;;5086656;28;20040;-75
2021/01/19 05:49:28;;;;;;;10.07;4.97;;;2.90;99.90;;;;;;5075037;28;20111;-75
2021/01/19 05:52:03;;;;;;;9.20;4.90;;;2.90;99.90;;;;;;5080434;28;20162;-75
2021/01/19 05:54:38;;;;;;;8.93;5.10;;;2.90;99.90;;;;;;5074429;28;20501;-75
2021/01/19 05:57:13;;;;;;;12.90;5.07;;;2.90;99.90;;;;;;5072666;28;20598;-76
2021/01/19 05:59:41;;;;;;;12.20;4.88;;;2.90;99.90;;;;;;5075338;28;20452;-75
2021/01/19 06:02:12;;;;;;;11.15;4.72;;;2.90;99.90;;;;;;5075295;28;20111;-76
2021/01/19 06:05:02;;;;;;;10.93;5.20;;;2.90;99.90;;;;;;5074173;28;20206;-76
2021/01/19 06:07:32;;;;;;;10.43;5.05;;;2.90;99.90;;;;;;5077218;28;20280;-76
2021/01/19 06:10:09;;;;;;;8.98;5.20;;;2.90;99.90;;;;;;5067070;28;20016;-76
2021/01/19 06:12:37;;;;;;;9.40;4.55;;;2.90;99.90;;;;;;5080785;28;20518;-75
2021/01/19 06:15:08;;;;;;;9.48;4.40;;;2.80;99.90;;;;;;5072028;28;20051;-75
2021/01/19 06:17:34;;;;;;;8.50;4.88;;;2.90;99.90;;;;;;5073711;28;20040;-76
2021/01/19 06:20:00;;;;;;;11.88;5.55;;;2.70;99.90;;;;;;5073721;28;20857;-75
2021/01/19 06:22:33;;;;;;;10.52;4.35;;;2.80;99.90;;;;;;5058871;28;20101;-75
2021/01/19 06:25:02;;;;;;;9.35;4.78;;;2.80;99.90;;;;;;5085193;28;20033;-75
2021/01/19 06:27:30;;;;;;;9.43;4.43;;;2.80;99.90;;;;;;5074112;28;20163;-76
2021/01/19 06:30:07;;;;;;;10.13;4.93;;;2.80;99.90;;;;;;5074495;28;20028;-75
2021/01/19 06:32:39;;;;;;;9.57;4.60;;;2.80;99.90;;;;;;5077243;28;20493;-76
2021/01/19 06:35:26;;;;;;;7.50;3.67;;;2.80;99.90;;;;;;5087171;28;20083;-76
2021/01/19 06:37:55;;;;;;;9.05;4.75;;;2.80;99.90;;;;;;5078780;28;20040;-76
2021/01/19 06:40:25;;;;;;;8.32;5.18;;;2.80;99.90;;;;;;5074112;28;20023;-75
2021/01/19 06:42:59;;;;;;;9.57;4.90;;;2.80;99.90;;;;;;5055592;28;20104;-76
2021/01/19 06:45:28;;;;;;;11.57;5.45;;;2.80;99.90;;;;;;5075175;28;20040;-75
2021/01/19 06:48:00;;;;;;;11.23;4.90;;;2.80;99.90;;;;;;5073975;28;20028;-76
2021/01/19 06:50:30;;;;;;;11.07;5.03;;;2.80;99.90;;;;;;5075008;28;20048;-76
2021/01/19 06:52:56;;;;;;;10.57;5.00;;;2.80;99.90;;;;;;5068815;28;20123;-75
2021/01/19 06:55:22;;;;;;;11.00;4.85;;;2.80;99.90;;;;;;5078001;28;20460;-75
2021/01/19 06:58:10;;;;;;;9.88;5.20;;;2.80;99.90;;;;;;5086305;28;20063;-75
2021/01/19 07:00:41;;;;;;;11.35;5.60;;;2.80;99.90;;;;;;5089890;28;20021;-75
2021/01/19 07:03:20;;;;;;;10.68;5.20;;;2.80;99.90;;;;;;5087993;28;20024;-75
2021/01/19 07:05:53;;;;;;;10.02;5.53;;;2.80;99.90;;;;;;5078834;28;20023;-75
2021/01/19 07:08:21;;;;;;;12.18;5.97;;;2.80;99.90;;;;;;5083568;28;20043;-75
2021/01/19 07:10:50;;;;;;;11.63;5.82;;;2.80;99.90;;;;;;5073606;28;20070;-75
2021/01/19 07:13:22;;;;;;;14.20;6.22;;;2.80;99.90;;;;;;5076571;28;20458;-75
2021/01/19 07:16:05;;;;;;;12.38;5.82;;;2.70;99.90;;;;;;5074579;28;20031;-75
2021/01/19 07:18:43;;;;;;;11.23;6.18;;;2.80;99.90;;;;;;5077387;28;20508;-75
2021/01/19 07:21:15;;;;;;;14.45;6.72;;;2.60;99.90;;;;;;5091162;28;20066;-76
2021/01/19 07:23:44;;;;;;;12.38;6.07;;;2.60;99.90;;;;;;5082067;28;20040;-75
2021/01/19 07:26:34;;;;;;;13.13;6.53;;;2.60;99.90;;;;;;5077829;28;20087;-75
2021/01/19 07:28:59;;;;;;;18.25;10.25;;;2.50;99.90;;;;;;5077410;28;20089;-74
2021/01/19 07:31:25;;;;;;;11.77;6.57;;;2.50;99.90;;;;;;5059170;28;20627;-73
2021/01/19 07:33:58;;;;;;;12.70;6.70;;;2.50;99.90;;;;;;5080164;28;20024;-75
2021/01/19 07:36:26;;;;;;;11.77;7.10;;;2.50;99.90;;;;;;5078903;28;20031;-75
2021/01/19 07:38:54;;;;;;;11.20;6.53;;;2.50;99.90;;;;;;5090533;28;20039;-75
2021/01/19 07:41:33;;;;;;;12.93;7.20;;;2.50;99.90;;;;;;5088824;28;20689;-72
2021/01/19 07:44:02;;;;;;;13.50;7.40;;;2.50;99.90;;;;;;5088142;28;20117;-75
2021/01/19 07:46:29;;;;;;;12.13;6.43;;;2.50;99.90;;;;;;5087654;28;20058;-75
2021/01/19 07:49:01;;;;;;;13.88;7.20;;;2.50;99.90;;;;;;5090542;28;20083;-75
2021/01/19 07:51:42;;;;;;;12.70;6.95;;;2.40;99.90;;;;;;5088461;28;20024;-75
2021/01/19 07:54:08;;;;;;;13.30;7.13;;;2.40;99.90;;;;;;5092017;28;20040;-75
2021/01/19 07:56:33;;;;;;;12.75;6.45;;;2.40;99.90;;;;;;5089373;28;20032;-75
2021/01/19 07:59:01;;;;;;;14.40;7.40;;;2.50;99.90;;;;;;5088191;28;20399;-76
2021/01/19 08:01:36;;;;;;;13.20;7.63;;;2.40;99.90;;;;;;5087828;28;20017;-75
2021/01/19 08:04:16;;;;;;;14.32;7.40;;;2.40;99.90;;;;;;5091796;28;20114;-75
2021/01/19 08:06:45;;;;;;;15.82;7.47;;;2.40;99.90;;;;;;5087737;28;20031;-75
2021/01/19 08:09:20;;;;;;;10.77;6.63;;;2.40;99.90;;;;;;5091476;28;20070;-75
2021/01/19 08:11:46;;;;;;;13.77;7.28;;;2.40;99.90;;;;;;5077612;28;20020;-75
2021/01/19 08:14:14;;;;;;;17.05;8.07;;;2.40;99.90;;;;;;5065881;28;20019;-76
2021/01/19 08:16:47;;;;;;;14.13;6.57;;;2.40;99.90;;;;;;5090456;28;20024;-75
2021/01/19 08:19:14;;;;;;;12.38;7.10;;;2.50;99.90;;;;;;5078201;28;20079;-75
2021/01/19 08:21:50;;;;;;;10.00;6.55;;;2.50;99.90;;;;;;5085327;28;20310;-75
2021/01/19 08:24:18;;;;;;;13.80;7.40;;;2.50;99.90;;;;;;5071306;28;20636;-75
2021/01/19 08:26:49;;;;;;;13.73;7.38;;;2.40;99.90;;;;;;5088082;28;20024;-75
2021/01/19 08:29:17;;;;;;;13.43;6.93;;;2.40;99.90;;;;;;5085939;28;20031;-75
2021/01/19 08:31:43;;;;;;;12.85;7.45;;;2.40;99.90;;;;;;5091669;28;20055;-74
2021/01/19 08:34:09;;;;;;;13.55;7.55;;;2.40;99.90;;;;;;5068605;28;20028;-75
2021/01/19 08:36:35;;;;;;;12.45;7.28;;;2.40;99.90;;;;;;5086896;28;20017;-75
2021/01/19 08:39:03;;;;;;;14.65;7.40;;;2.40;99.90;;;;;;5072403;28;20397;-74
2021/01/19 08:41:29;;;;;;;13.48;7.20;;;2.40;99.90;;;;;;5071575;28;20067;-75
2021/01/19 08:43:59;;;;;;;13.32;7.15;;;2.40;99.90;;;;;;5091761;28;20056;-74
2021/01/19 08:46:28;;;;;;;11.40;7.13;;;2.40;99.90;;;;;;5091118;28;20036;-79
2021/01/19 08:49:05;;;;;;;14.65;7.40;;;2.40;99.90;;;;;;5089225;28;20028;-72
2021/01/19 08:51:33;;;;;;;13.75;7.22;;;2.40;99.90;;;;;;5078917;28;20517;-75
2021/01/19 08:54:01;;;;;;;13.68;7.32;;;2.40;99.90;;;;;;5092309;28;20069;-74
2021/01/19 08:56:30;;;;;;;14.45;7.10;;;2.40;99.90;;;;;;5095953;28;20137;-74
2021/01/19 08:58:55;;;;;;;13.88;7.88;;;2.40;99.90;;;;;;5091252;28;20031;-75
2021/01/19 09:01:24;;;;;;;11.60;6.38;;;2.40;99.90;;;;;;5087823;28;20031;-74
2021/01/19 09:04:02;;;;;;;13.65;7.20;;;2.30;99.90;;;;;;5059413;28;20030;-74
2021/01/19 09:06:29;;;;;;;14.13;7.57;;;2.30;99.90;;;;;;5089695;28;20020;-74
2021/01/19 09:09:00;;;;;;;11.20;6.95;;;2.20;99.90;;;;;;5077824;28;20028;-74
2021/01/19 09:11:36;;;;;;;10.33;6.20;;;2.20;99.90;;;;;;5087974;28;20099;-74
2021/01/19 09:14:09;;;;;;;12.90;7.22;;;2.10;99.90;;;;;;5088370;28;20607;-74
2021/01/19 09:16:36;;;;;;;13.70;7.43;;;2.10;99.90;;;;;;5084531;28;20020;-74
2021/01/19 09:19:04;;;;;;;13.77;7.95;;;2.10;99.90;;;;;;5085853;28;20024;-74
2021/01/19 09:21:29;;;;;;;11.98;7.45;;;2.10;99.90;;;;;;5084794;28;20032;-73
2021/01/19 09:23:55;;;;;;;12.45;7.40;;;2.10;99.90;;;;;;5087880;28;20024;-74
2021/01/19 09:26:24;;;;;;;11.73;8.05;;;2.10;99.90;;;;;;5072318;28;20032;-74
2021/01/19 09:28:52;;;;;;;11.20;7.75;;;2.00;99.90;;;;;;5059473;28;20166;-73
2021/01/19 09:31:20;;;;;;;11.40;7.40;;;2.00;99.90;;;;;;5078281;28;20044;-74
2021/01/19 09:33:50;;;;;;;13.40;7.63;;;2.00;99.90;;;;;;5075567;28;20021;-74
2021/01/19 09:36:19;;;;;;;11.18;7.30;;;2.00;99.90;;;;;;5084159;28;20032;-73
2021/01/19 09:38:47;;;;;;;12.35;8.45;;;2.00;99.90;;;;;;5086000;28;20428;-73
2021/01/19 09:41:24;;;;;;;13.55;8.43;;;1.90;99.90;;;;;;5087199;28;20066;-71
2021/01/19 09:44:01;;;;;;;14.38;8.85;;;1.90;99.90;;;;;;5078143;28;20115;-74
2021/01/19 09:46:29;;;;;;;16.73;8.18;;;2.00;99.90;;;;;;5086427;28;20047;-74
2021/01/19 09:48:58;;;;;;;14.57;7.60;;;2.00;99.90;;;;;;5073663;28;20053;-74
2021/01/19 09:51:28;;;;;;;14.57;7.00;;;2.00;99.90;;;;;;5089985;28;20362;-74
2021/01/19 09:53:55;;;;;;;12.63;7.60;;;2.00;99.90;;;;;;5084480;28;20024;-74
2021/01/19 09:56:20;;;;;;;14.50;7.38;;;2.10;99.90;;;;;;5069108;28;20032;-74
2021/01/19 09:58:46;;;;;;;17.52;7.80;;;2.10;99.90;;;;;;5086683;28;20047;-74
2021/01/19 10:01:24;;;;;;;14.65;6.80;;;2.00;99.90;;;;;;5086909;28;20187;-73
2021/01/19 10:03:52;;;;;;;14.98;7.00;;;2.00;99.90;;;;;;5085182;28;20074;-74
2021/01/19 10:06:21;;;;;;;15.52;7.40;;;2.00;99.90;;;;;;5069674;28;20097;-73
2021/01/19 10:08:52;;;;;;;17.55;7.00;;;2.10;99.90;;;;;;5088348;28;20248;-74
2021/01/19 10:11:54;;;;;;;16.58;7.90;;;2.10;99.90;;;;;;5075781;28;20119;-74
2021/01/19 10:14:22;;;;;;;14.32;7.03;;;2.10;99.90;;;;;;5078133;28;20042;-74
2021/01/19 10:16:49;;;;;;;13.05;6.80;;;2.10;99.90;;;;;;5090141;28;20029;-74
2021/01/19 10:19:28;;;;;;;11.63;6.60;;;2.10;99.90;;;;;;5071439;28;20020;-74
2021/01/19 10:21:56;;;;;;;16.33;7.75;;;2.20;99.90;;;;;;5074680;28;20020;-73
2021/01/19 10:24:22;;;;;;;13.23;7.05;;;2.20;99.90;;;;;;5088467;28;20020;-75
2021/01/19 10:27:09;;;;;;;18.75;8.05;;;2.10;99.90;;;;;;5089934;28;20028;-74
2021/01/19 10:29:42;;;;;;;14.20;7.15;;;2.10;99.90;;;;;;5088701;28;20107;-74
2021/01/19 10:32:13;;;;;;;15.50;7.40;;;2.10;99.90;;;;;;5084109;28;20544;-74
2021/01/19 10:34:53;;;;;;;15.40;6.80;;;2.20;99.90;;;;;;5075155;28;20046;-74
2021/01/19 10:37:23;;;;;;;14.27;6.95;;;2.20;99.90;;;;;;5083597;28;20043;-74
2021/01/19 10:39:55;;;;;;;12.48;6.45;;;2.20;99.90;;;;;;5090326;28;20042;-74
2021/01/19 10:42:24;;;;;;;13.07;6.13;;;2.20;99.90;;;;;;5085808;28;20119;-73
2021/01/19 10:45:01;;;;;;;12.65;6.05;;;2.30;99.90;;;;;;5091361;28;20103;-75
2021/01/19 10:47:36;;;;;;;13.23;6.03;;;2.30;99.90;;;;;;5084996;28;20085;-74
2021/01/19 10:50:14;;;;;;;13.48;5.80;;;2.30;99.90;;;;;;5075922;28;20024;-74
2021/01/19 10:52:40;;;;;;;15.45;5.47;;;2.40;99.90;;;;;;5079309;28;20751;-74
2021/01/19 10:55:08;;;;;;;11.88;6.05;;;2.40;99.90;;;;;;5070528;28;20058;-74
2021/01/19 10:57:38;;;;;;;14.20;6.00;;;2.40;99.90;;;;;;5084235;28;20020;-74
2021/01/19 11:00:05;;;;;;;11.50;5.40;;;2.40;99.90;;;;;;5088443;28;20036;-75
2021/01/19 11:02:33;;;;;;;11.02;5.50;;;2.40;99.90;;;;;;5089394;28;20076;-74
2021/01/19 11:04:59;;;;;;;11.57;5.78;;;2.40;99.90;;;;;;5086330;28;20031;-75
2021/01/19 11:07:25;;;;;;;10.75;5.35;;;2.50;99.90;;;;;;5087859;28;20031;-75
2021/01/19 11:09:55;;;;;;;11.88;5.30;;;2.50;99.90;;;;;;5056530;28;20036;-75
2021/01/19 11:12:21;;;;;;;11.45;5.55;;;2.50;99.90;;;;;;5088061;28;20062;-75
2021/01/19 11:14:47;;;;;;;11.98;5.47;;;2.50;99.90;;;;;;5084599;28;20038;-74
2021/01/19 11:17:15;;;;;;;11.90;5.93;;;2.50;99.90;;;;;;5086462;28;20028;-75
2021/01/19 11:19:42;;;;;;;13.25;5.65;;;2.60;99.90;;;;;;5086584;28;20036;-75
2021/01/19 11:22:10;;;;;;;12.82;5.88;;;2.60;99.90;;;;;;5090477;28;20109;-75
2021/01/19 11:24:36;;;;;;;14.13;6.15;;;2.60;99.90;;;;;;5090212;28;20168;-75
2021/01/19 11:27:04;;;;;;;11.50;5.78;;;2.60;99.90;;;;;;5087957;28;20532;-75
2021/01/19 11:29:34;;;;;;;13.07;5.82;;;2.60;99.90;;;;;;5088228;28;21546;-76
2021/01/19 11:32:00;;;;;;;12.02;6.18;;;2.60;99.90;;;;;;5087051;28;20080;-75
2021/01/19 11:34:26;;;;;;;13.27;6.30;;;2.60;99.90;;;;;;5088887;28;20028;-76
2021/01/19 11:36:52;;;;;;;12.70;6.45;;;2.70;99.90;;;;;;5087346;28;20453;-74
2021/01/19 11:39:21;;;;;;;22.90;9.15;;;2.70;99.90;;;;;;5087757;28;20135;-74
2021/01/19 11:41:51;;;;;;;13.75;6.22;;;2.70;99.90;;;;;;5082072;28;20062;-76
2021/01/19 11:44:22;;;;;;;13.43;6.55;;;2.70;99.90;;;;;;5086679;28;20035;-75
2021/01/19 11:46:53;;;;;;;12.82;6.35;;;2.70;99.90;;;;;;5074285;28;20506;-75
2021/01/19 11:49:20;;;;;;;12.50;5.95;;;2.80;99.90;;;;;;5081952;28;20032;-74
2021/01/19 11:51:47;;;;;;;13.93;6.20;;;2.80;99.90;;;;;;5089460;28;20032;-75
2021/01/19 11:54:18;;;;;;;10.95;5.78;;;2.90;99.90;;;;;;5077000;28;20059;-74
2021/01/19 11:56:51;;;;;;;11.63;6.47;;;2.90;99.90;;;;;;5072389;28;20454;-74
2021/01/19 11:59:16;;;;;;;;;;;3.00;99.90;;;;;;5089791;28;20429;-74
2021/01/19 12:01:45;;;;;;;13.23;5.93;;;3.00;99.90;;;;;;5088944;28;19934;-74
2021/01/19 12:04:12;;;;;;;12.48;6.07;;;3.00;99.90;;;;;;5088064;28;20032;-73
2021/01/19 12:06:42;;;;;;;11.32;6.70;;;3.00;99.90;;;;;;5091065;28;20042;-74
2021/01/19 12:09:08;;;;;;;11.40;6.50;;;3.10;99.90;;;;;;5057770;28;20036;-73
2021/01/19 12:11:44;;;;;;;10.95;5.63;;;3.10;99.90;;;;;;5092349;28;20058;-73
2021/01/19 12:14:10;;;;;;;13.15;6.43;;;3.10;99.90;;;;;;5093638;28;20032;-73
2021/01/19 12:16:36;;;;;;;10.52;5.72;;;3.20;99.90;;;;;;5093151;28;20346;-73
2021/01/19 12:19:09;;;;;;;10.98;6.00;;;3.20;99.90;;;;;;5077733;28;20029;-73
2021/01/19 12:21:37;;;;;;;11.52;6.25;;;3.20;99.90;;;;;;5081881;28;20036;-72
2021/01/19 12:24:04;;;;;;;9.98;5.82;;;3.20;99.90;;;;;;5092655;28;20452;-73
2021/01/19 12:26:30;;;;;;;14.40;6.50;;;3.20;99.90;;;;;;5091348;28;20089;-73
2021/01/19 12:29:00;;;;;;;11.55;6.43;;;3.20;99.90;;;;;;5093213;28;20024;-74
2021/01/19 12:31:26;;;;;;;9.38;6.03;;;3.30;99.90;;;;;;5090870;28;20101;-73
2021/01/19 12:33:56;;;;;;;10.75;5.60;;;3.20;99.90;;;;;;5093616;28;20024;-73
2021/01/19 12:36:24;;;;;;;11.32;6.60;;;3.30;99.90;;;;;;5088956;28;20103;-73
2021/01/19 12:38:54;;;;;;;11.48;6.15;;;3.30;99.90;;;;;;5073232;28;20030;-73
2021/01/19 12:41:22;;;;;;;10.73;6.25;;;3.40;99.90;;;;;;5093226;28;20286;-73
2021/01/19 12:43:50;;;;;;;11.57;6.10;;;3.30;99.90;;;;;;5092773;28;20027;-73
2021/01/19 12:46:18;;;;;;;8.38;5.50;;;3.30;99.90;;;;;;5089970;28;20079;-73
2021/01/19 12:48:43;;;;;;;10.73;6.05;;;3.30;99.90;;;;;;5090517;28;20472;-73
2021/01/19 12:51:16;;;;;;;12.23;6.13;;;3.30;99.90;;;;;;5087379;28;20097;-73
2021/01/19 12:53:45;;;;;;;12.05;6.22;;;3.30;99.90;;;;;;5091068;28;20059;-73
2021/01/19 12:56:11;;;;;;;10.82;6.28;;;3.30;99.90;;;;;;5088485;28;20032;-73
2021/01/19 12:58:43;;;;;;;10.95;6.03;;;3.30;99.90;;;;;;5087722;28;20034;-74
2021/01/19 13:01:09;;;;;;;;;;;3.30;99.90;;;;;;5088377;28;20050;-73
2021/01/19 13:03:37;;;;;;;10.07;5.38;;;3.30;99.90;;;;;;5086303;28;20341;-73
2021/01/19 13:06:03;;;;;;;10.00;6.10;;;3.30;99.90;;;;;;5089147;28;20028;-73